sensor_id;sensor_type;location;lat;lon;timestamp;pressure;altitude;pressure_sealevel;temperature;humidity
5952;BME280;3001;42.622;23.194;2023-03-25T00:02:24;91040.09;;;10.66;74.49
5952;BME280;3001;42.622;23.194;2023-03-25T00:04:54;91048.50;;;10.89;74.57
5952;BME280;3001;42.622;23.194;2023-03-25T00:07:21;91056.13;;;11.02;74.05
5952;BME280;3001;42.622;23.194;2023-03-25T00:09:49;91053.97;;;11.21;73.03
5952;BME280;3001;42.622;23.194;2023-03-25T00:12:16;91052.41;;;11.29;73.04
5952;BME280;3001;42.622;23.194;2023-03-25T00:14:43;91043.09;;;11.19;73.53
5952;BME280;3001;42.622;23.194;2023-03-25T00:17:19;91041.44;;;11.15;73.49
5952;BME280;3001;42.622;23.194;2023-03-25T00:19:45;91036.38;;;11.18;73.56
5952;BME280;3001;42.622;23.194;2023-03-25T00:22:15;91034.44;;;11.07;73.96
5952;BME280;3001;42.622;23.194;2023-03-25T00:24:42;91028.78;;;10.96;74.24
5952;BME280;3001;42.622;23.194;2023-03-25T00:27:10;91023.75;;;10.83;74.75
5952;BME280;3001;42.622;23.194;2023-03-25T00:29:39;91016.44;;;10.76;75.11
5952;BME280;3001;42.622;23.194;2023-03-25T00:32:06;91019.94;;;10.63;76.34
5952;BME280;3001;42.622;23.194;2023-03-25T00:34:33;91017.34;;;10.55;76.76
5952;BME280;3001;42.622;23.194;2023-03-25T00:37:06;91016.28;;;10.64;76.22
5952;BME280;3001;42.622;23.194;2023-03-25T00:39:34;91013.50;;;10.69;76.09
5952;BME280;3001;42.622;23.194;2023-03-25T00:42:01;91011.41;;;10.63;76.80
5952;BME280;3001;42.622;23.194;2023-03-25T00:44:30;91021.78;;;10.63;76.77
5952;BME280;3001;42.622;23.194;2023-03-25T00:46:57;91022.25;;;10.73;76.66
5952;BME280;3001;42.622;23.194;2023-03-25T00:49:23;91022.53;;;10.72;76.82
5952;BME280;3001;42.622;23.194;2023-03-25T00:51:53;91021.47;;;10.73;76.77
5952;BME280;3001;42.622;23.194;2023-03-25T00:54:20;91014.75;;;10.55;77.11
5952;BME280;3001;42.622;23.194;2023-03-25T00:56:47;91008.47;;;10.47;77.44
5952;BME280;3001;42.622;23.194;2023-03-25T00:59:14;91006.94;;;10.72;77.02
5952;BME280;3001;42.622;23.194;2023-03-25T01:01:42;91008.78;;;10.71;76.42
5952;BME280;3001;42.622;23.194;2023-03-25T01:04:10;91006.19;;;10.71;77.01
5952;BME280;3001;42.622;23.194;2023-03-25T01:06:39;91003.56;;;10.71;76.30
5952;BME280;3001;42.622;23.194;2023-03-25T01:09:10;91009.38;;;10.77;77.45
5952;BME280;3001;42.622;23.194;2023-03-25T01:11:38;91002.38;;;10.77;77.14
5952;BME280;3001;42.622;23.194;2023-03-25T01:14:07;90984.34;;;10.72;76.79
5952;BME280;3001;42.622;23.194;2023-03-25T01:16:35;90998.81;;;10.82;77.17
5952;BME280;3001;42.622;23.194;2023-03-25T01:19:03;90993.50;;;10.87;76.82
5952;BME280;3001;42.622;23.194;2023-03-25T01:21:30;90987.09;;;10.67;77.07
5952;BME280;3001;42.622;23.194;2023-03-25T01:23:58;90987.41;;;10.66;77.43
5952;BME280;3001;42.622;23.194;2023-03-25T01:26:24;90983.88;;;10.70;76.90
5952;BME280;3001;42.622;23.194;2023-03-25T01:28:51;90978.84;;;10.74;77.06
5952;BME280;3001;42.622;23.194;2023-03-25T01:31:18;90972.41;;;10.80;75.80
5952;BME280;3001;42.622;23.194;2023-03-25T01:33:47;90969.66;;;10.76;76.79
5952;BME280;3001;42.622;23.194;2023-03-25T01:36:15;90964.03;;;10.57;77.39
5952;BME280;3001;42.622;23.194;2023-03-25T01:38:42;90959.31;;;10.51;77.79
5952;BME280;3001;42.622;23.194;2023-03-25T01:41:09;90962.97;;;10.50;78.70
5952;BME280;3001;42.622;23.194;2023-03-25T01:43:36;90954.84;;;10.68;78.20
5952;BME280;3001;42.622;23.194;2023-03-25T01:46:03;90954.13;;;10.34;79.21
5952;BME280;3001;42.622;23.194;2023-03-25T01:48:32;90953.66;;;10.49;78.40
5952;BME280;3001;42.622;23.194;2023-03-25T01:51:05;90960.53;;;10.36;79.63
5952;BME280;3001;42.622;23.194;2023-03-25T01:53:38;90954.56;;;10.44;78.89
5952;BME280;3001;42.622;23.194;2023-03-25T01:56:06;90961.28;;;10.62;78.49
5952;BME280;3001;42.622;23.194;2023-03-25T01:58:35;90959.59;;;10.49;78.20
5952;BME280;3001;42.622;23.194;2023-03-25T02:01:03;90958.69;;;10.62;78.65
5952;BME280;3001;42.622;23.194;2023-03-25T02:03:30;90958.06;;;10.57;78.63
5952;BME280;3001;42.622;23.194;2023-03-25T02:06:02;90952.69;;;10.70;77.96
5952;BME280;3001;42.622;23.194;2023-03-25T02:08:32;90947.09;;;10.34;78.95
5952;BME280;3001;42.622;23.194;2023-03-25T02:11:03;90950.00;;;10.16;79.88
5952;BME280;3001;42.622;23.194;2023-03-25T02:13:31;90952.44;;;10.29;79.71
5952;BME280;3001;42.622;23.194;2023-03-25T02:16:13;90953.22;;;10.22;79.65
5952;BME280;3001;42.622;23.194;2023-03-25T02:18:52;90949.53;;;10.06;80.67
5952;BME280;3001;42.622;23.194;2023-03-25T02:21:45;90943.44;;;10.19;80.14
5952;BME280;3001;42.622;23.194;2023-03-25T02:24:45;90951.06;;;10.15;79.83
5952;BME280;3001;42.622;23.194;2023-03-25T02:27:26;90925.56;;;10.09;80.23
5952;BME280;3001;42.622;23.194;2023-03-25T02:30:29;90952.91;;;10.23;79.75
5952;BME280;3001;42.622;23.194;2023-03-25T02:33:15;90945.88;;;10.32;78.92
5952;BME280;3001;42.622;23.194;2023-03-25T02:36:08;90955.97;;;10.33;80.33
5952;BME280;3001;42.622;23.194;2023-03-25T02:38:45;90953.38;;;10.42;80.29
5952;BME280;3001;42.622;23.194;2023-03-25T02:41:18;90933.53;;;10.21;80.43
5952;BME280;3001;42.622;23.194;2023-03-25T02:43:52;90947.56;;;10.28;79.71
5952;BME280;3001;42.622;23.194;2023-03-25T02:46:22;90944.34;;;10.39;79.21
5952;BME280;3001;42.622;23.194;2023-03-25T02:48:54;90943.00;;;10.33;79.56
5952;BME280;3001;42.622;23.194;2023-03-25T02:51:27;90938.09;;;10.24;79.49
5952;BME280;3001;42.622;23.194;2023-03-25T02:54:01;90943.28;;;10.07;80.34
5952;BME280;3001;42.622;23.194;2023-03-25T02:56:29;90943.16;;;10.12;81.08
5952;BME280;3001;42.622;23.194;2023-03-25T02:58:58;90936.88;;;10.13;81.06
5952;BME280;3001;42.622;23.194;2023-03-25T03:01:26;90933.50;;;10.04;81.29
5952;BME280;3001;42.622;23.194;2023-03-25T03:03:52;90938.69;;;10.04;80.84
5952;BME280;3001;42.622;23.194;2023-03-25T03:06:20;90934.72;;;9.98;81.49
5952;BME280;3001;42.622;23.194;2023-03-25T03:09:05;90909.66;;;9.76;81.84
5952;BME280;3001;42.622;23.194;2023-03-25T03:11:39;90929.84;;;10.05;81.41
5952;BME280;3001;42.622;23.194;2023-03-25T03:14:23;90922.94;;;9.75;82.50
5952;BME280;3001;42.622;23.194;2023-03-25T03:16:59;90931.19;;;9.77;82.85
5952;BME280;3001;42.622;23.194;2023-03-25T03:19:34;90936.22;;;9.82;82.96
5952;BME280;3001;42.622;23.194;2023-03-25T03:22:18;90933.44;;;9.78;83.00
5952;BME280;3001;42.622;23.194;2023-03-25T03:24:56;90932.72;;;9.95;82.42
5952;BME280;3001;42.622;23.194;2023-03-25T03:27:28;90928.16;;;9.92;81.82
5952;BME280;3001;42.622;23.194;2023-03-25T03:30:03;90938.66;;;9.87;82.99
5952;BME280;3001;42.622;23.194;2023-03-25T03:32:36;90930.28;;;9.81;83.36
5952;BME280;3001;42.622;23.194;2023-03-25T03:35:09;90935.94;;;9.92;82.74
5952;BME280;3001;42.622;23.194;2023-03-25T03:37:41;90932.25;;;9.84;82.71
5952;BME280;3001;42.622;23.194;2023-03-25T03:40:14;90927.69;;;9.81;83.04
5952;BME280;3001;42.622;23.194;2023-03-25T03:42:44;90935.59;;;9.76;82.96
5952;BME280;3001;42.622;23.194;2023-03-25T03:45:16;90926.47;;;9.87;82.49
5952;BME280;3001;42.622;23.194;2023-03-25T03:47:48;90927.34;;;9.66;83.51
5952;BME280;3001;42.622;23.194;2023-03-25T03:50:19;90925.94;;;9.51;84.52
5952;BME280;3001;42.622;23.194;2023-03-25T03:52:49;90931.75;;;9.57;83.77
5952;BME280;3001;42.622;23.194;2023-03-25T03:55:20;90911.59;;;9.45;83.65
5952;BME280;3001;42.622;23.194;2023-03-25T03:57:53;90918.78;;;9.57;83.99
5952;BME280;3001;42.622;23.194;2023-03-25T04:00:25;90925.97;;;9.68;83.66
5952;BME280;3001;42.622;23.194;2023-03-25T04:02:57;90931.91;;;9.52;84.70
5952;BME280;3001;42.622;23.194;2023-03-25T04:05:27;90936.44;;;9.38;85.84
5952;BME280;3001;42.622;23.194;2023-03-25T04:07:57;90942.88;;;9.57;85.89
5952;BME280;3001;42.622;23.194;2023-03-25T04:10:34;90939.25;;;9.75;83.72
5952;BME280;3001;42.622;23.194;2023-03-25T04:13:08;90936.94;;;9.57;83.92
5952;BME280;3001;42.622;23.194;2023-03-25T04:15:38;90943.06;;;9.69;83.75
5952;BME280;3001;42.622;23.194;2023-03-25T04:18:05;90936.81;;;9.70;83.79
5952;BME280;3001;42.622;23.194;2023-03-25T04:20:33;90935.94;;;9.83;83.23
5952;BME280;3001;42.622;23.194;2023-03-25T04:23:01;90928.59;;;9.77;83.19
5952;BME280;3001;42.622;23.194;2023-03-25T04:25:30;90941.56;;;9.85;83.14
5952;BME280;3001;42.622;23.194;2023-03-25T04:27:58;90939.84;;;9.64;83.62
5952;BME280;3001;42.622;23.194;2023-03-25T04:30:25;90941.97;;;9.62;84.13
5952;BME280;3001;42.622;23.194;2023-03-25T04:32:52;90939.97;;;9.50;84.65
5952;BME280;3001;42.622;23.194;2023-03-25T04:35:19;90938.75;;;9.56;83.79
5952;BME280;3001;42.622;23.194;2023-03-25T04:37:46;90952.66;;;9.69;83.26
5952;BME280;3001;42.622;23.194;2023-03-25T04:40:15;90932.38;;;9.54;83.37
5952;BME280;3001;42.622;23.194;2023-03-25T04:42:44;90941.66;;;9.55;84.07
5952;BME280;3001;42.622;23.194;2023-03-25T04:45:11;90949.50;;;9.72;84.95
5952;BME280;3001;42.622;23.194;2023-03-25T04:47:41;90952.06;;;9.80;83.75
5952;BME280;3001;42.622;23.194;2023-03-25T04:50:16;90942.44;;;9.64;83.20
5952;BME280;3001;42.622;23.194;2023-03-25T04:52:44;90924.47;;;9.67;83.10
5952;BME280;3001;42.622;23.194;2023-03-25T04:55:11;90951.47;;;10.00;81.82
5952;BME280;3001;42.622;23.194;2023-03-25T04:57:44;90947.50;;;9.86;82.33
5952;BME280;3001;42.622;23.194;2023-03-25T05:00:12;90943.38;;;9.85;82.68
5952;BME280;3001;42.622;23.194;2023-03-25T05:02:42;90945.81;;;9.90;82.29
5952;BME280;3001;42.622;23.194;2023-03-25T05:05:10;90946.16;;;9.88;82.42
5952;BME280;3001;42.622;23.194;2023-03-25T05:07:42;90960.94;;;9.96;82.70
5952;BME280;3001;42.622;23.194;2023-03-25T05:10:09;90950.13;;;9.94;82.85
5952;BME280;3001;42.622;23.194;2023-03-25T05:12:36;90947.72;;;10.06;83.17
5952;BME280;3001;42.622;23.194;2023-03-25T05:15:06;90948.47;;;10.07;83.31
5952;BME280;3001;42.622;23.194;2023-03-25T05:17:33;90946.78;;;10.27;82.94
5952;BME280;3001;42.622;23.194;2023-03-25T05:19:59;90943.91;;;10.21;83.66
5952;BME280;3001;42.622;23.194;2023-03-25T05:22:26;90942.06;;;10.13;84.32
5952;BME280;3001;42.622;23.194;2023-03-25T05:24:53;90944.81;;;10.50;83.13
5952;BME280;3001;42.622;23.194;2023-03-25T05:27:20;90940.97;;;10.30;83.74
5952;BME280;3001;42.622;23.194;2023-03-25T05:29:47;90928.00;;;10.30;84.19
5952;BME280;3001;42.622;23.194;2023-03-25T05:32:15;90935.19;;;10.42;83.20
5952;BME280;3001;42.622;23.194;2023-03-25T05:34:42;90937.31;;;10.48;83.59
5952;BME280;3001;42.622;23.194;2023-03-25T05:37:10;90936.56;;;10.39;84.16
5952;BME280;3001;42.622;23.194;2023-03-25T05:39:37;90938.09;;;10.49;83.85
5952;BME280;3001;42.622;23.194;2023-03-25T05:42:04;90939.16;;;10.56;83.21
5952;BME280;3001;42.622;23.194;2023-03-25T05:44:30;90945.97;;;10.69;83.79
5952;BME280;3001;42.622;23.194;2023-03-25T05:46:57;90952.41;;;10.72;83.67
5952;BME280;3001;42.622;23.194;2023-03-25T05:49:27;90954.66;;;10.82;83.15
5952;BME280;3001;42.622;23.194;2023-03-25T05:51:54;90954.66;;;10.82;83.40
5952;BME280;3001;42.622;23.194;2023-03-25T05:54:21;90944.69;;;11.01;82.46
5952;BME280;3001;42.622;23.194;2023-03-25T05:56:49;90956.53;;;11.19;82.27
5952;BME280;3001;42.622;23.194;2023-03-25T05:59:15;90957.53;;;11.06;81.96
5952;BME280;3001;42.622;23.194;2023-03-25T06:01:42;90962.34;;;11.24;80.89
5952;BME280;3001;42.622;23.194;2023-03-25T06:04:10;90967.69;;;11.28;81.19
5952;BME280;3001;42.622;23.194;2023-03-25T06:06:38;90965.94;;;11.49;80.20
5952;BME280;3001;42.622;23.194;2023-03-25T06:09:06;90958.56;;;11.59;80.44
5952;BME280;3001;42.622;23.194;2023-03-25T06:11:33;90960.38;;;11.59;79.11
5952;BME280;3001;42.622;23.194;2023-03-25T06:14:02;90959.84;;;11.74;78.52
5952;BME280;3001;42.622;23.194;2023-03-25T06:16:29;90954.84;;;11.69;79.44
5952;BME280;3001;42.622;23.194;2023-03-25T06:18:57;90956.00;;;11.80;79.33
5952;BME280;3001;42.622;23.194;2023-03-25T06:21:25;90970.47;;;11.89;78.24
5952;BME280;3001;42.622;23.194;2023-03-25T06:23:54;90958.97;;;11.70;80.02
5952;BME280;3001;42.622;23.194;2023-03-25T06:26:23;90953.47;;;11.63;79.77
5952;BME280;3001;42.622;23.194;2023-03-25T06:28:50;90962.22;;;12.16;79.03
5952;BME280;3001;42.622;23.194;2023-03-25T06:31:18;90959.66;;;12.28;77.57
5952;BME280;3001;42.622;23.194;2023-03-25T06:33:48;90957.31;;;12.14;78.42
5952;BME280;3001;42.622;23.194;2023-03-25T06:36:16;90964.09;;;12.07;79.42
5952;BME280;3001;42.622;23.194;2023-03-25T06:38:44;90966.25;;;12.46;78.21
5952;BME280;3001;42.622;23.194;2023-03-25T06:41:14;90966.19;;;12.54;77.53
5952;BME280;3001;42.622;23.194;2023-03-25T06:43:41;90958.16;;;12.59;78.36
5952;BME280;3001;42.622;23.194;2023-03-25T06:46:08;90957.88;;;12.40;78.46
5952;BME280;3001;42.622;23.194;2023-03-25T06:48:35;90961.78;;;12.67;78.12
5952;BME280;3001;42.622;23.194;2023-03-25T06:51:01;90967.41;;;12.57;78.29
5952;BME280;3001;42.622;23.194;2023-03-25T06:53:28;90971.38;;;12.75;78.12
5952;BME280;3001;42.622;23.194;2023-03-25T06:55:56;90971.72;;;13.06;76.24
5952;BME280;3001;42.622;23.194;2023-03-25T06:58:24;90969.78;;;13.03;76.68
5952;BME280;3001;42.622;23.194;2023-03-25T07:00:59;90973.91;;;13.04;77.82
5952;BME280;3001;42.622;23.194;2023-03-25T07:03:28;90977.53;;;13.23;76.70
5952;BME280;3001;42.622;23.194;2023-03-25T07:05:54;90971.91;;;13.45;75.30
5952;BME280;3001;42.622;23.194;2023-03-25T07:08:21;90970.09;;;13.82;75.39
5952;BME280;3001;42.622;23.194;2023-03-25T07:10:48;90967.78;;;13.80;74.94
5952;BME280;3001;42.622;23.194;2023-03-25T07:13:15;90973.78;;;14.04;74.70
5952;BME280;3001;42.622;23.194;2023-03-25T07:15:43;90971.25;;;14.08;73.49
5952;BME280;3001;42.622;23.194;2023-03-25T07:18:10;90970.38;;;14.40;73.49
5952;BME280;3001;42.622;23.194;2023-03-25T07:20:36;90970.78;;;14.42;73.40
5952;BME280;3001;42.622;23.194;2023-03-25T07:23:03;90978.09;;;14.48;73.25
5952;BME280;3001;42.622;23.194;2023-03-25T07:25:30;90971.25;;;14.71;72.56
5952;BME280;3001;42.622;23.194;2023-03-25T07:27:56;90972.22;;;14.79;72.10
5952;BME280;3001;42.622;23.194;2023-03-25T07:30:23;90971.59;;;14.97;71.90
5952;BME280;3001;42.622;23.194;2023-03-25T07:32:51;90973.47;;;15.12;71.99
5952;BME280;3001;42.622;23.194;2023-03-25T07:35:18;90972.00;;;15.27;70.28
5952;BME280;3001;42.622;23.194;2023-03-25T07:37:45;90978.38;;;15.41;68.77
5952;BME280;3001;42.622;23.194;2023-03-25T07:40:12;90979.50;;;15.56;69.24
5952;BME280;3001;42.622;23.194;2023-03-25T07:42:38;90975.78;;;15.72;64.41
5952;BME280;3001;42.622;23.194;2023-03-25T07:45:06;90967.81;;;15.99;64.81
5952;BME280;3001;42.622;23.194;2023-03-25T07:47:33;90969.03;;;16.21;65.69
5952;BME280;3001;42.622;23.194;2023-03-25T07:50:01;90974.03;;;16.41;60.87
5952;BME280;3001;42.622;23.194;2023-03-25T07:52:27;90978.72;;;16.51;55.97
5952;BME280;3001;42.622;23.194;2023-03-25T07:54:54;90969.75;;;16.87;54.72
5952;BME280;3001;42.622;23.194;2023-03-25T07:57:21;90978.34;;;17.06;50.22
5952;BME280;3001;42.622;23.194;2023-03-25T07:59:47;90969.28;;;16.85;47.23
5952;BME280;3001;42.622;23.194;2023-03-25T08:02:14;90967.78;;;17.03;50.25
5952;BME280;3001;42.622;23.194;2023-03-25T08:04:41;90960.41;;;16.89;49.15
5952;BME280;3001;42.622;23.194;2023-03-25T08:07:09;90965.56;;;17.05;50.61
5952;BME280;3001;42.622;23.194;2023-03-25T08:09:36;90965.22;;;17.06;45.73
5952;BME280;3001;42.622;23.194;2023-03-25T08:12:02;90957.97;;;17.19;46.43
5952;BME280;3001;42.622;23.194;2023-03-25T08:14:29;90958.22;;;17.33;48.88
5952;BME280;3001;42.622;23.194;2023-03-25T08:16:56;90954.38;;;17.27;47.48
5952;BME280;3001;42.622;23.194;2023-03-25T08:19:22;90948.56;;;17.37;46.93
5952;BME280;3001;42.622;23.194;2023-03-25T08:21:49;90956.81;;;17.57;47.49
5952;BME280;3001;42.622;23.194;2023-03-25T08:24:17;90965.56;;;17.65;46.30
5952;BME280;3001;42.622;23.194;2023-03-25T08:26:44;90960.56;;;17.79;44.69
5952;BME280;3001;42.622;23.194;2023-03-25T08:29:11;90960.06;;;17.96;46.11
5952;BME280;3001;42.622;23.194;2023-03-25T08:31:41;90952.50;;;18.17;45.97
5952;BME280;3001;42.622;23.194;2023-03-25T08:34:12;90951.84;;;18.23;42.97
5952;BME280;3001;42.622;23.194;2023-03-25T08:36:39;90951.13;;;18.26;44.08
5952;BME280;3001;42.622;23.194;2023-03-25T08:39:06;90959.88;;;18.30;43.29
5952;BME280;3001;42.622;23.194;2023-03-25T08:41:37;90951.78;;;18.42;41.22
5952;BME280;3001;42.622;23.194;2023-03-25T08:44:04;90946.97;;;18.48;42.57
5952;BME280;3001;42.622;23.194;2023-03-25T08:46:31;90943.81;;;18.65;40.00
5952;BME280;3001;42.622;23.194;2023-03-25T08:48:58;90935.19;;;18.97;38.90
5952;BME280;3001;42.622;23.194;2023-03-25T08:51:25;90953.69;;;19.04;41.03
5952;BME280;3001;42.622;23.194;2023-03-25T08:53:52;90942.59;;;18.88;40.15
5952;BME280;3001;42.622;23.194;2023-03-25T08:56:18;90944.47;;;18.88;41.52
5952;BME280;3001;42.622;23.194;2023-03-25T08:58:47;90939.66;;;19.23;41.24
5952;BME280;3001;42.622;23.194;2023-03-25T09:01:13;90941.03;;;19.13;41.03
5952;BME280;3001;42.622;23.194;2023-03-25T09:03:40;90935.28;;;19.37;40.73
5952;BME280;3001;42.622;23.194;2023-03-25T09:06:07;90935.63;;;19.72;41.57
5952;BME280;3001;42.622;23.194;2023-03-25T09:08:35;90924.31;;;19.71;39.39
5952;BME280;3001;42.622;23.194;2023-03-25T09:11:02;90914.97;;;19.81;39.25
5952;BME280;3001;42.622;23.194;2023-03-25T09:13:29;90914.72;;;19.96;40.59
5952;BME280;3001;42.622;23.194;2023-03-25T09:15:58;90914.56;;;20.19;40.04
5952;BME280;3001;42.622;23.194;2023-03-25T09:18:24;90912.41;;;20.35;38.42
5952;BME280;3001;42.622;23.194;2023-03-25T09:20:51;90911.63;;;20.34;38.87
5952;BME280;3001;42.622;23.194;2023-03-25T09:23:18;90909.69;;;20.24;37.56
5952;BME280;3001;42.622;23.194;2023-03-25T09:25:44;90914.97;;;20.24;38.37
5952;BME280;3001;42.622;23.194;2023-03-25T09:28:12;90913.13;;;20.35;39.62
5952;BME280;3001;42.622;23.194;2023-03-25T09:30:39;90908.66;;;20.43;38.81
5952;BME280;3001;42.622;23.194;2023-03-25T09:33:07;90903.13;;;20.62;38.94
5952;BME280;3001;42.622;23.194;2023-03-25T09:35:33;90896.00;;;20.76;38.36
5952;BME280;3001;42.622;23.194;2023-03-25T09:38:00;90903.72;;;21.09;38.43
5952;BME280;3001;42.622;23.194;2023-03-25T09:40:27;90901.16;;;21.30;39.02
5952;BME280;3001;42.622;23.194;2023-03-25T09:43:06;90898.50;;;21.44;38.55
5952;BME280;3001;42.622;23.194;2023-03-25T09:45:39;90895.56;;;21.63;38.62
5952;BME280;3001;42.622;23.194;2023-03-25T09:48:20;90898.59;;;21.72;37.96
5952;BME280;3001;42.622;23.194;2023-03-25T09:50:51;90897.47;;;21.80;38.02
5952;BME280;3001;42.622;23.194;2023-03-25T09:53:26;90880.84;;;21.90;38.31
5952;BME280;3001;42.622;23.194;2023-03-25T09:55:54;90895.19;;;22.17;36.65
5952;BME280;3001;42.622;23.194;2023-03-25T09:58:33;90895.19;;;22.27;37.50
5952;BME280;3001;42.622;23.194;2023-03-25T10:01:13;90893.31;;;22.38;35.37
5952;BME280;3001;42.622;23.194;2023-03-25T10:03:53;90895.94;;;22.31;36.11
5952;BME280;3001;42.622;23.194;2023-03-25T10:06:21;90881.19;;;22.30;35.36
5952;BME280;3001;42.622;23.194;2023-03-25T10:09:07;90897.44;;;22.36;37.00
5952;BME280;3001;42.622;23.194;2023-03-25T10:11:46;90891.00;;;22.54;36.41
5952;BME280;3001;42.622;23.194;2023-03-25T10:14:24;90879.94;;;22.84;35.92
5952;BME280;3001;42.622;23.194;2023-03-25T10:17:02;90873.50;;;22.85;35.78
5952;BME280;3001;42.622;23.194;2023-03-25T10:19:42;90873.13;;;22.90;34.79
5952;BME280;3001;42.622;23.194;2023-03-25T10:22:17;90868.97;;;22.89;35.77
5952;BME280;3001;42.622;23.194;2023-03-25T10:24:47;90867.06;;;22.86;36.12
5952;BME280;3001;42.622;23.194;2023-03-25T10:27:18;90872.41;;;22.82;35.28
5952;BME280;3001;42.622;23.194;2023-03-25T10:29:50;90873.13;;;22.83;35.45
5952;BME280;3001;42.622;23.194;2023-03-25T10:32:28;90861.81;;;22.79;35.49
5952;BME280;3001;42.622;23.194;2023-03-25T10:35:00;90867.47;;;22.77;35.76
5952;BME280;3001;42.622;23.194;2023-03-25T10:37:32;90863.69;;;22.82;34.67
5952;BME280;3001;42.622;23.194;2023-03-25T10:40:12;90858.09;;;22.59;33.32
5952;BME280;3001;42.622;23.194;2023-03-25T10:42:44;90856.59;;;22.37;34.54
5952;BME280;3001;42.622;23.194;2023-03-25T10:45:16;90864.59;;;22.16;35.55
5952;BME280;3001;42.622;23.194;2023-03-25T10:47:45;90853.25;;;22.08;35.74
5952;BME280;3001;42.622;23.194;2023-03-25T10:50:15;90851.38;;;21.95;34.89
5952;BME280;3001;42.622;23.194;2023-03-25T10:52:43;90851.41;;;21.77;35.29
5952;BME280;3001;42.622;23.194;2023-03-25T10:55:19;90837.81;;;21.65;36.25
5952;BME280;3001;42.622;23.194;2023-03-25T10:57:48;90835.91;;;21.76;37.48
5952;BME280;3001;42.622;23.194;2023-03-25T11:00:16;90814.34;;;21.56;37.87
5952;BME280;3001;42.622;23.194;2023-03-25T11:02:44;90835.88;;;21.72;36.60
5952;BME280;3001;42.622;23.194;2023-03-25T11:05:15;90832.50;;;21.86;37.44
5952;BME280;3001;42.622;23.194;2023-03-25T11:07:45;90836.66;;;21.94;35.91
5952;BME280;3001;42.622;23.194;2023-03-25T11:10:17;90827.94;;;21.93;37.09
5952;BME280;3001;42.622;23.194;2023-03-25T11:12:44;90818.53;;;21.78;35.00
5952;BME280;3001;42.622;23.194;2023-03-25T11:15:14;90820.38;;;22.06;34.82
5952;BME280;3001;42.622;23.194;2023-03-25T11:17:41;90824.47;;;22.45;34.55
5952;BME280;3001;42.622;23.194;2023-03-25T11:20:19;90827.09;;;22.56;35.87
5952;BME280;3001;42.622;23.194;2023-03-25T11:22:49;90820.25;;;22.69;36.33
5952;BME280;3001;42.622;23.194;2023-03-25T11:25:19;90821.31;;;22.82;35.59
5952;BME280;3001;42.622;23.194;2023-03-25T11:27:52;90826.97;;;22.91;34.53
5952;BME280;3001;42.622;23.194;2023-03-25T11:30:22;90813.44;;;22.64;32.47
5952;BME280;3001;42.622;23.194;2023-03-25T11:32:56;90816.91;;;22.44;34.81
5952;BME280;3001;42.622;23.194;2023-03-25T11:35:27;90810.75;;;22.78;33.92
5952;BME280;3001;42.622;23.194;2023-03-25T11:37:56;90802.94;;;22.47;36.82
5952;BME280;3001;42.622;23.194;2023-03-25T11:40:23;90803.34;;;22.24;33.48
5952;BME280;3001;42.622;23.194;2023-03-25T11:42:52;90802.19;;;22.22;34.21
5952;BME280;3001;42.622;23.194;2023-03-25T11:45:21;90794.69;;;22.10;33.38
5952;BME280;3001;42.622;23.194;2023-03-25T11:47:49;90790.13;;;22.14;35.00
5952;BME280;3001;42.622;23.194;2023-03-25T11:50:21;90793.16;;;22.12;34.88
5952;BME280;3001;42.622;23.194;2023-03-25T11:52:53;90801.44;;;22.25;34.22
5952;BME280;3001;42.622;23.194;2023-03-25T11:55:23;90790.06;;;22.31;35.08
5952;BME280;3001;42.622;23.194;2023-03-25T11:57:52;90780.16;;;22.56;34.53
5952;BME280;3001;42.622;23.194;2023-03-25T12:00:29;90790.44;;;22.51;33.19
5952;BME280;3001;42.622;23.194;2023-03-25T12:03:00;90798.28;;;22.72;33.74
5952;BME280;3001;42.622;23.194;2023-03-25T12:05:27;90784.69;;;22.63;33.67
5952;BME280;3001;42.622;23.194;2023-03-25T12:08:03;90788.56;;;22.44;33.63
5952;BME280;3001;42.622;23.194;2023-03-25T12:10:43;90772.69;;;22.34;34.05
5952;BME280;3001;42.622;23.194;2023-03-25T12:13:16;90766.66;;;22.30;36.20
5952;BME280;3001;42.622;23.194;2023-03-25T12:15:53;90781.03;;;22.22;35.40
5952;BME280;3001;42.622;23.194;2023-03-25T12:18:41;90774.56;;;22.37;35.66
5952;BME280;3001;42.622;23.194;2023-03-25T12:21:21;90762.84;;;22.41;36.35
5952;BME280;3001;42.622;23.194;2023-03-25T12:24:02;90766.97;;;22.46;36.56
5952;BME280;3001;42.622;23.194;2023-03-25T12:26:39;90775.69;;;22.43;35.25
5952;BME280;3001;42.622;23.194;2023-03-25T12:29:21;90776.06;;;22.48;36.43
5952;BME280;3001;42.622;23.194;2023-03-25T12:32:01;90776.41;;;22.54;34.02
5952;BME280;3001;42.622;23.194;2023-03-25T12:34:37;90774.19;;;22.42;35.34
5952;BME280;3001;42.622;23.194;2023-03-25T12:37:13;90766.59;;;22.47;34.75
5952;BME280;3001;42.622;23.194;2023-03-25T12:39:56;90757.91;;;22.50;35.43
5952;BME280;3001;42.622;23.194;2023-03-25T12:42:35;90752.97;;;22.56;35.82
5952;BME280;3001;42.622;23.194;2023-03-25T12:45:26;90748.41;;;22.60;35.64
5952;BME280;3001;42.622;23.194;2023-03-25T12:48:02;90740.91;;;22.48;35.54
5952;BME280;3001;42.622;23.194;2023-03-25T12:50:44;90753.69;;;22.63;35.35
5952;BME280;3001;42.622;23.194;2023-03-25T12:53:25;90749.13;;;22.71;35.70
5952;BME280;3001;42.622;23.194;2023-03-25T12:56:08;90748.09;;;22.47;36.00
5952;BME280;3001;42.622;23.194;2023-03-25T12:59:02;90751.09;;;22.53;35.96
5952;BME280;3001;42.622;23.194;2023-03-25T13:01:40;90746.97;;;22.41;36.69
5952;BME280;3001;42.622;23.194;2023-03-25T13:04:24;90746.59;;;22.32;36.73
5952;BME280;3001;42.622;23.194;2023-03-25T13:07:00;90746.22;;;22.34;36.18
5952;BME280;3001;42.622;23.194;2023-03-25T13:09:31;90734.94;;;22.12;37.76
5952;BME280;3001;42.622;23.194;2023-03-25T13:12:03;90753.81;;;22.14;37.91
5952;BME280;3001;42.622;23.194;2023-03-25T13:14:38;90765.97;;;22.01;38.10
5952;BME280;3001;42.622;23.194;2023-03-25T13:17:11;90757.31;;;21.83;38.93
5952;BME280;3001;42.622;23.194;2023-03-25T13:19:41;90747.91;;;21.65;39.04
5952;BME280;3001;42.622;23.194;2023-03-25T13:22:15;90757.69;;;21.54;41.45
5952;BME280;3001;42.622;23.194;2023-03-25T13:24:46;90759.59;;;21.46;43.95
5952;BME280;3001;42.622;23.194;2023-03-25T13:27:17;90764.13;;;21.42;46.29
5952;BME280;3001;42.622;23.194;2023-03-25T13:29:47;90753.16;;;21.33;49.10
5952;BME280;3001;42.622;23.194;2023-03-25T13:32:19;90759.97;;;21.20;47.45